Biloxi, MS

11:14 AM CDT on March 27, 2015 (GMT -0500)
Keesler Air Force Base | | Change Station
CLOSE
Current Station
Airport
Location: Biloxi,
Elevation: 33 ft
Nearby Weather Stations

Elev 33 ft 30.41 °N, 88.92 °W | Updated 16 minutes ago

Clear
Clear
59 °F
Feels Like 59 °F
N
15
Wind Variable Wind from North

Today
High -- | Low -- °F
--% Chance of Precip.
Yesterday
High -- | Low -- °F
Precip. -- in
6:51 AM 7:11 PM
First Quarter, 53% visible
Pressure 30.03 in
Visibility 10.0 miles
Clouds Clear
Dew Point 41 °F
Humidity 51%
Rainfall 0.00 in
Snow Depth Not available.
UV 8 out of 12
Pollen 9.80 out of 12
Air Quality Not available.
Flu Activity Not available.
METAR KBIX 271558Z AUTO 01013KT 10SM CLR 15/05 A3002 RMK AO2 SLP169 T01480048

More Conditions Fewer Conditions

Pressure 30.03 in
Visibility 10.0 miles
Clouds Clear
Dew Point 41 °F
Humidity 51%
Rainfall 0.00 in
Snow Depth Not available.
UV 8 out of 12
Pollen 9.80 out of 12
Air Quality Not available.
Flu Activity Not available.
METAR KBIX 271558Z AUTO 01013KT 10SM CLR 15/05 A3002 RMK AO2 SLP169 T01480048

More Conditions Fewer Conditions

10-Day Weather Forecast

Almanac

Astronomy

Mar. 27, 2015 Rise Set
Actual Time
Civil Twilight
Nautical Twilight
Astronomical Twilight
Moon
Length of Visible Light
Length of Day
Tomorrow will be .
, % of the Moon is Illuminated

Today's Extremes

State Highs State Lows

Community

WunderPhotos

Upload Photos

1,808,766 photos uploaded!

WunderBlogs® & News

Nearby

Air Quality

  Air Quality AQ Index Pollutant
Not available.

Snow Depth

Station Depth Elevation

Earthquake Activity

City Distance Mag. Time & Date
Minimum magnitude displayed is 2.5.

Coastal Water Temperatures

Place Temperature

Stations

Nearby Weather Stations

Station Location Temp. Windchill Dew Point Humidity Wind Precip. Elev Updated Type